sensor_id;sensor_type;location;lat;lon;timestamp;temperature;humidity
18823;DHT22;9540;51.550;7.980;2023-04-24T00:00:54;9.40;99.90
18823;DHT22;9540;51.550;7.980;2023-04-24T00:03:22;9.40;99.90
18823;DHT22;9540;51.550;7.980;2023-04-24T00:05:49;9.50;99.90
18823;DHT22;9540;51.550;7.980;2023-04-24T00:08:17;9.50;99.90
18823;DHT22;9540;51.550;7.980;2023-04-24T00:10:44;9.60;99.90
18823;DHT22;9540;51.550;7.980;2023-04-24T00:13:11;9.70;99.90
18823;DHT22;9540;51.550;7.980;2023-04-24T00:15:40;9.80;99.90
18823;DHT22;9540;51.550;7.980;2023-04-24T00:18:07;9.80;99.90
18823;DHT22;9540;51.550;7.980;2023-04-24T00:20:34;9.70;99.90
18823;DHT22;9540;51.550;7.980;2023-04-24T00:23:02;9.70;99.90
18823;DHT22;9540;51.550;7.980;2023-04-24T00:25:29;9.70;99.90
18823;DHT22;9540;51.550;7.980;2023-04-24T00:27:56;9.80;99.90
18823;DHT22;9540;51.550;7.980;2023-04-24T00:30:23;9.80;99.90
18823;DHT22;9540;51.550;7.980;2023-04-24T00:32:51;9.90;99.90
18823;DHT22;9540;51.550;7.980;2023-04-24T00:35:19;9.80;99.90
18823;DHT22;9540;51.550;7.980;2023-04-24T00:37:46;9.80;99.90
18823;DHT22;9540;51.550;7.980;2023-04-24T00:40:16;9.80;99.90
18823;DHT22;9540;51.550;7.980;2023-04-24T00:42:46;9.80;99.90
18823;DHT22;9540;51.550;7.980;2023-04-24T00:45:13;9.90;99.90
18823;DHT22;9540;51.550;7.980;2023-04-24T00:47:42;9.80;99.90
18823;DHT22;9540;51.550;7.980;2023-04-24T00:50:10;9.70;99.90
18823;DHT22;9540;51.550;7.980;2023-04-24T00:52:39;9.70;99.90
18823;DHT22;9540;51.550;7.980;2023-04-24T00:55:07;9.60;99.90
18823;DHT22;9540;51.550;7.980;2023-04-24T00:57:37;9.40;99.90
18823;DHT22;9540;51.550;7.980;2023-04-24T01:00:05;9.40;99.90
18823;DHT22;9540;51.550;7.980;2023-04-24T01:02:36;9.20;99.90
18823;DHT22;9540;51.550;7.980;2023-04-24T01:05:06;9.10;99.90
18823;DHT22;9540;51.550;7.980;2023-04-24T01:07:36;9.00;99.90
18823;DHT22;9540;51.550;7.980;2023-04-24T01:10:04;9.00;99.90
18823;DHT22;9540;51.550;7.980;2023-04-24T01:12:31;8.90;99.90
18823;DHT22;9540;51.550;7.980;2023-04-24T01:14:59;8.90;99.90
18823;DHT22;9540;51.550;7.980;2023-04-24T01:17:26;8.80;99.90
18823;DHT22;9540;51.550;7.980;2023-04-24T01:19:53;8.80;99.90
18823;DHT22;9540;51.550;7.980;2023-04-24T01:22:23;8.80;99.90
18823;DHT22;9540;51.550;7.980;2023-04-24T01:24:51;8.80;99.90
18823;DHT22;9540;51.550;7.980;2023-04-24T01:27:19;8.80;99.90
18823;DHT22;9540;51.550;7.980;2023-04-24T01:29:46;8.80;99.90
18823;DHT22;9540;51.550;7.980;2023-04-24T01:32:15;8.80;99.90
18823;DHT22;9540;51.550;7.980;2023-04-24T01:34:43;8.80;99.90
18823;DHT22;9540;51.550;7.980;2023-04-24T01:37:10;8.90;99.90
18823;DHT22;9540;51.550;7.980;2023-04-24T01:39:39;8.90;99.90
18823;DHT22;9540;51.550;7.980;2023-04-24T01:42:07;8.90;99.90
18823;DHT22;9540;51.550;7.980;2023-04-24T01:44:34;8.90;99.90
18823;DHT22;9540;51.550;7.980;2023-04-24T01:47:01;8.80;99.90
18823;DHT22;9540;51.550;7.980;2023-04-24T01:49:28;8.60;99.90
18823;DHT22;9540;51.550;7.980;2023-04-24T01:51:56;8.50;99.90
18823;DHT22;9540;51.550;7.980;2023-04-24T01:54:23;8.40;99.90
18823;DHT22;9540;51.550;7.980;2023-04-24T01:56:52;8.30;99.90
18823;DHT22;9540;51.550;7.980;2023-04-24T01:59:20;8.10;99.90
18823;DHT22;9540;51.550;7.980;2023-04-24T02:01:48;8.10;99.90
18823;DHT22;9540;51.550;7.980;2023-04-24T02:04:15;8.00;99.90
18823;DHT22;9540;51.550;7.980;2023-04-24T02:06:42;8.00;99.90
18823;DHT22;9540;51.550;7.980;2023-04-24T02:09:09;8.00;99.90
18823;DHT22;9540;51.550;7.980;2023-04-24T02:11:36;8.00;99.90
18823;DHT22;9540;51.550;7.980;2023-04-24T02:14:08;8.00;99.90
18823;DHT22;9540;51.550;7.980;2023-04-24T02:16:35;8.00;99.90
18823;DHT22;9540;51.550;7.980;2023-04-24T02:19:02;7.90;99.90
18823;DHT22;9540;51.550;7.980;2023-04-24T02:21:29;8.00;99.90
18823;DHT22;9540;51.550;7.980;2023-04-24T02:23:57;8.00;99.90
18823;DHT22;9540;51.550;7.980;2023-04-24T02:26:24;8.10;99.90
18823;DHT22;9540;51.550;7.980;2023-04-24T02:28:51;8.20;99.90
18823;DHT22;9540;51.550;7.980;2023-04-24T02:31:20;8.40;99.90
18823;DHT22;9540;51.550;7.980;2023-04-24T02:33:47;8.60;99.90
18823;DHT22;9540;51.550;7.980;2023-04-24T02:36:14;8.80;99.90
18823;DHT22;9540;51.550;7.980;2023-04-24T02:38:41;9.10;99.90
18823;DHT22;9540;51.550;7.980;2023-04-24T02:41:09;9.20;99.90
18823;DHT22;9540;51.550;7.980;2023-04-24T02:43:36;9.30;99.90
18823;DHT22;9540;51.550;7.980;2023-04-24T02:46:03;9.40;99.90
18823;DHT22;9540;51.550;7.980;2023-04-24T02:48:31;9.50;99.90
18823;DHT22;9540;51.550;7.980;2023-04-24T02:50:58;9.50;99.90
18823;DHT22;9540;51.550;7.980;2023-04-24T02:53:25;9.60;99.90
18823;DHT22;9540;51.550;7.980;2023-04-24T02:55:53;9.70;99.90
18823;DHT22;9540;51.550;7.980;2023-04-24T02:58:20;9.80;99.90
18823;DHT22;9540;51.550;7.980;2023-04-24T03:00:47;9.80;99.90
18823;DHT22;9540;51.550;7.980;2023-04-24T03:03:14;9.90;99.90
18823;DHT22;9540;51.550;7.980;2023-04-24T03:05:43;9.90;99.90
18823;DHT22;9540;51.550;7.980;2023-04-24T03:08:10;9.90;99.90
18823;DHT22;9540;51.550;7.980;2023-04-24T03:10:37;9.80;99.90
18823;DHT22;9540;51.550;7.980;2023-04-24T03:13:07;9.90;99.90
18823;DHT22;9540;51.550;7.980;2023-04-24T03:15:34;9.80;99.90
18823;DHT22;9540;51.550;7.980;2023-04-24T03:18:01;9.80;99.90
18823;DHT22;9540;51.550;7.980;2023-04-24T03:20:28;9.80;99.90
18823;DHT22;9540;51.550;7.980;2023-04-24T03:22:57;9.80;99.90
18823;DHT22;9540;51.550;7.980;2023-04-24T03:25:24;9.70;99.90
18823;DHT22;9540;51.550;7.980;2023-04-24T03:27:51;9.70;99.90
18823;DHT22;9540;51.550;7.980;2023-04-24T03:30:20;9.60;99.90
18823;DHT22;9540;51.550;7.980;2023-04-24T03:32:47;9.60;99.90
18823;DHT22;9540;51.550;7.980;2023-04-24T03:35:14;9.50;99.90
18823;DHT22;9540;51.550;7.980;2023-04-24T03:37:41;9.40;99.90
18823;DHT22;9540;51.550;7.980;2023-04-24T03:40:10;9.40;99.90
18823;DHT22;9540;51.550;7.980;2023-04-24T03:42:37;9.40;99.90
18823;DHT22;9540;51.550;7.980;2023-04-24T03:45:05;9.30;99.90
18823;DHT22;9540;51.550;7.980;2023-04-24T03:47:33;9.20;99.90
18823;DHT22;9540;51.550;7.980;2023-04-24T03:50:00;9.20;99.90
18823;DHT22;9540;51.550;7.980;2023-04-24T03:52:27;9.20;99.90
18823;DHT22;9540;51.550;7.980;2023-04-24T03:54:54;9.20;99.90
18823;DHT22;9540;51.550;7.980;2023-04-24T03:57:23;9.20;99.90
18823;DHT22;9540;51.550;7.980;2023-04-24T03:59:50;9.20;99.90
18823;DHT22;9540;51.550;7.980;2023-04-24T04:02:19;9.20;99.90
18823;DHT22;9540;51.550;7.980;2023-04-24T04:04:46;9.10;99.90
18823;DHT22;9540;51.550;7.980;2023-04-24T04:07:16;9.10;99.90
18823;DHT22;9540;51.550;7.980;2023-04-24T04:09:43;9.00;99.90
18823;DHT22;9540;51.550;7.980;2023-04-24T04:12:10;8.90;99.90
18823;DHT22;9540;51.550;7.980;2023-04-24T04:14:39;8.80;99.90
18823;DHT22;9540;51.550;7.980;2023-04-24T04:17:07;8.80;99.90
18823;DHT22;9540;51.550;7.980;2023-04-24T04:19:34;8.80;99.90
18823;DHT22;9540;51.550;7.980;2023-04-24T04:22:01;8.70;99.90
18823;DHT22;9540;51.550;7.980;2023-04-24T04:24:28;8.60;99.90
18823;DHT22;9540;51.550;7.980;2023-04-24T04:26:55;8.50;99.90
18823;DHT22;9540;51.550;7.980;2023-04-24T04:29:23;8.40;99.90
18823;DHT22;9540;51.550;7.980;2023-04-24T04:31:52;8.30;99.90
18823;DHT22;9540;51.550;7.980;2023-04-24T04:34:20;8.30;99.90
18823;DHT22;9540;51.550;7.980;2023-04-24T04:36:48;8.30;99.90
18823;DHT22;9540;51.550;7.980;2023-04-24T04:39:16;8.30;99.90
18823;DHT22;9540;51.550;7.980;2023-04-24T04:41:44;8.30;99.90
18823;DHT22;9540;51.550;7.980;2023-04-24T04:44:12;8.30;99.90
18823;DHT22;9540;51.550;7.980;2023-04-24T04:46:39;8.30;99.90
18823;DHT22;9540;51.550;7.980;2023-04-24T04:49:08;8.20;99.90
18823;DHT22;9540;51.550;7.980;2023-04-24T04:51:36;8.20;99.90
18823;DHT22;9540;51.550;7.980;2023-04-24T04:54:03;8.20;99.90
18823;DHT22;9540;51.550;7.980;2023-04-24T04:56:30;8.30;99.90
18823;DHT22;9540;51.550;7.980;2023-04-24T04:58:57;8.30;99.90
18823;DHT22;9540;51.550;7.980;2023-04-24T05:01:25;8.30;99.90
18823;DHT22;9540;51.550;7.980;2023-04-24T05:03:53;8.40;99.90
18823;DHT22;9540;51.550;7.980;2023-04-24T05:06:21;8.40;99.90
18823;DHT22;9540;51.550;7.980;2023-04-24T05:08:48;8.50;99.90
18823;DHT22;9540;51.550;7.980;2023-04-24T05:11:16;8.60;99.90
18823;DHT22;9540;51.550;7.980;2023-04-24T05:13:44;8.70;99.90
18823;DHT22;9540;51.550;7.980;2023-04-24T05:16:11;8.90;99.90
18823;DHT22;9540;51.550;7.980;2023-04-24T05:18:38;9.00;99.90
18823;DHT22;9540;51.550;7.980;2023-04-24T05:21:05;9.10;99.90
18823;DHT22;9540;51.550;7.980;2023-04-24T05:23:33;9.30;99.90
18823;DHT22;9540;51.550;7.980;2023-04-24T05:26:00;9.40;99.90
18823;DHT22;9540;51.550;7.980;2023-04-24T05:28:28;9.60;99.90
18823;DHT22;9540;51.550;7.980;2023-04-24T05:30:55;9.80;99.90
18823;DHT22;9540;51.550;7.980;2023-04-24T05:33:22;10.00;99.90
18823;DHT22;9540;51.550;7.980;2023-04-24T05:35:49;10.10;99.90
18823;DHT22;9540;51.550;7.980;2023-04-24T05:38:16;10.30;99.90
18823;DHT22;9540;51.550;7.980;2023-04-24T05:40:49;10.30;99.90
18823;DHT22;9540;51.550;7.980;2023-04-24T05:43:16;10.20;99.90
18823;DHT22;9540;51.550;7.980;2023-04-24T05:45:46;10.10;99.90
18823;DHT22;9540;51.550;7.980;2023-04-24T05:48:13;9.90;99.90
18823;DHT22;9540;51.550;7.980;2023-04-24T05:50:42;9.80;99.90
18823;DHT22;9540;51.550;7.980;2023-04-24T05:53:09;9.70;99.90
18823;DHT22;9540;51.550;7.980;2023-04-24T05:55:36;9.70;99.90
18823;DHT22;9540;51.550;7.980;2023-04-24T05:58:05;9.70;99.90
18823;DHT22;9540;51.550;7.980;2023-04-24T06:00:32;9.80;99.90
18823;DHT22;9540;51.550;7.980;2023-04-24T06:03:00;9.90;99.90
18823;DHT22;9540;51.550;7.980;2023-04-24T06:05:29;10.00;99.90
18823;DHT22;9540;51.550;7.980;2023-04-24T06:07:56;9.90;99.90
18823;DHT22;9540;51.550;7.980;2023-04-24T06:10:23;9.80;99.90
18823;DHT22;9540;51.550;7.980;2023-04-24T06:12:51;9.60;99.90
18823;DHT22;9540;51.550;7.980;2023-04-24T06:15:19;9.60;99.90
18823;DHT22;9540;51.550;7.980;2023-04-24T06:17:47;9.60;99.90
18823;DHT22;9540;51.550;7.980;2023-04-24T06:20:14;9.60;99.90
18823;DHT22;9540;51.550;7.980;2023-04-24T06:22:41;9.60;99.90
18823;DHT22;9540;51.550;7.980;2023-04-24T06:25:08;9.80;99.90
18823;DHT22;9540;51.550;7.980;2023-04-24T06:27:35;9.80;99.90
18823;DHT22;9540;51.550;7.980;2023-04-24T06:30:03;9.90;99.90
18823;DHT22;9540;51.550;7.980;2023-04-24T06:32:31;9.90;99.90
18823;DHT22;9540;51.550;7.980;2023-04-24T06:34:58;9.90;99.90
18823;DHT22;9540;51.550;7.980;2023-04-24T06:37:25;9.90;99.90
18823;DHT22;9540;51.550;7.980;2023-04-24T06:39:56;9.80;99.90
18823;DHT22;9540;51.550;7.980;2023-04-24T06:42:23;9.90;99.90
18823;DHT22;9540;51.550;7.980;2023-04-24T06:44:50;9.80;99.90
18823;DHT22;9540;51.550;7.980;2023-04-24T06:47:17;9.80;99.90
18823;DHT22;9540;51.550;7.980;2023-04-24T06:49:46;9.80;99.90
18823;DHT22;9540;51.550;7.980;2023-04-24T06:52:13;9.80;99.90
18823;DHT22;9540;51.550;7.980;2023-04-24T06:54:41;9.90;99.90
18823;DHT22;9540;51.550;7.980;2023-04-24T06:57:08;9.90;99.90
18823;DHT22;9540;51.550;7.980;2023-04-24T06:59:36;10.10;99.90
18823;DHT22;9540;51.550;7.980;2023-04-24T07:02:03;10.30;99.90
18823;DHT22;9540;51.550;7.980;2023-04-24T07:04:30;10.40;99.90
18823;DHT22;9540;51.550;7.980;2023-04-24T07:06:59;10.50;99.90
18823;DHT22;9540;51.550;7.980;2023-04-24T07:09:26;10.60;99.90
18823;DHT22;9540;51.550;7.980;2023-04-24T07:11:54;10.50;99.90
18823;DHT22;9540;51.550;7.980;2023-04-24T07:14:22;10.40;99.90
18823;DHT22;9540;51.550;7.980;2023-04-24T07:16:49;10.30;99.90
18823;DHT22;9540;51.550;7.980;2023-04-24T07:19:16;10.10;99.90
18823;DHT22;9540;51.550;7.980;2023-04-24T07:21:43;9.90;99.90
18823;DHT22;9540;51.550;7.980;2023-04-24T07:24:12;9.70;99.90
18823;DHT22;9540;51.550;7.980;2023-04-24T07:26:39;9.60;99.90
18823;DHT22;9540;51.550;7.980;2023-04-24T07:29:06;9.60;99.90
18823;DHT22;9540;51.550;7.980;2023-04-24T07:31:33;9.70;99.90
18823;DHT22;9540;51.550;7.980;2023-04-24T07:34:00;9.90;99.90
18823;DHT22;9540;51.550;7.980;2023-04-24T07:36:28;10.00;99.90
18823;DHT22;9540;51.550;7.980;2023-04-24T07:38:55;10.20;99.90
18823;DHT22;9540;51.550;7.980;2023-04-24T07:41:24;10.40;99.90
18823;DHT22;9540;51.550;7.980;2023-04-24T07:43:53;10.60;99.90
18823;DHT22;9540;51.550;7.980;2023-04-24T07:46:20;10.70;99.90
18823;DHT22;9540;51.550;7.980;2023-04-24T07:48:48;10.70;99.90
18823;DHT22;9540;51.550;7.980;2023-04-24T07:51:16;10.70;99.90
18823;DHT22;9540;51.550;7.980;2023-04-24T07:53:43;10.40;99.90
18823;DHT22;9540;51.550;7.980;2023-04-24T07:56:10;10.50;99.90
18823;DHT22;9540;51.550;7.980;2023-04-24T07:58:39;10.80;99.90
18823;DHT22;9540;51.550;7.980;2023-04-24T08:01:06;10.80;99.90
18823;DHT22;9540;51.550;7.980;2023-04-24T08:03:33;10.90;99.90
18823;DHT22;9540;51.550;7.980;2023-04-24T08:06:01;10.80;99.90
18823;DHT22;9540;51.550;7.980;2023-04-24T08:08:28;10.70;99.90
18823;DHT22;9540;51.550;7.980;2023-04-24T08:10:55;10.50;99.90
18823;DHT22;9540;51.550;7.980;2023-04-24T08:13:22;10.40;99.90
18823;DHT22;9540;51.550;7.980;2023-04-24T08:15:51;10.40;99.90
18823;DHT22;9540;51.550;7.980;2023-04-24T08:18:18;10.30;99.90
18823;DHT22;9540;51.550;7.980;2023-04-24T08:20:45;10.20;99.90
18823;DHT22;9540;51.550;7.980;2023-04-24T08:23:12;10.00;99.90
18823;DHT22;9540;51.550;7.980;2023-04-24T08:25:40;10.20;99.90
18823;DHT22;9540;51.550;7.980;2023-04-24T08:28:09;10.60;99.90
18823;DHT22;9540;51.550;7.980;2023-04-24T08:30:36;10.90;99.90
18823;DHT22;9540;51.550;7.980;2023-04-24T08:33:05;10.90;99.90
18823;DHT22;9540;51.550;7.980;2023-04-24T08:35:32;10.50;99.90
18823;DHT22;9540;51.550;7.980;2023-04-24T08:37:59;10.30;99.90
18823;DHT22;9540;51.550;7.980;2023-04-24T08:40:28;10.50;99.90
18823;DHT22;9540;51.550;7.980;2023-04-24T08:42:56;10.60;99.90
18823;DHT22;9540;51.550;7.980;2023-04-24T08:45:24;10.70;99.90
18823;DHT22;9540;51.550;7.980;2023-04-24T08:47:52;10.90;99.90
18823;DHT22;9540;51.550;7.980;2023-04-24T08:50:22;10.80;99.90
18823;DHT22;9540;51.550;7.980;2023-04-24T08:52:50;10.60;99.90
18823;DHT22;9540;51.550;7.980;2023-04-24T08:55:19;10.60;99.90
18823;DHT22;9540;51.550;7.980;2023-04-24T08:57:50;10.60;99.90
18823;DHT22;9540;51.550;7.980;2023-04-24T09:00:20;10.60;99.90
18823;DHT22;9540;51.550;7.980;2023-04-24T09:02:49;10.70;99.90
18823;DHT22;9540;51.550;7.980;2023-04-24T09:05:17;10.90;99.90
18823;DHT22;9540;51.550;7.980;2023-04-24T09:07:50;10.90;99.90
18823;DHT22;9540;51.550;7.980;2023-04-24T09:10:20;11.00;99.90
18823;DHT22;9540;51.550;7.980;2023-04-24T09:12:48;10.90;99.90
18823;DHT22;9540;51.550;7.980;2023-04-24T09:15:16;10.60;99.90
18823;DHT22;9540;51.550;7.980;2023-04-24T09:17:43;10.40;99.90
18823;DHT22;9540;51.550;7.980;2023-04-24T09:20:11;10.10;99.90
18823;DHT22;9540;51.550;7.980;2023-04-24T09:22:38;9.70;99.90
18823;DHT22;9540;51.550;7.980;2023-04-24T09:25:08;9.40;99.90
18823;DHT22;9540;51.550;7.980;2023-04-24T09:27:42;9.20;99.90
18823;DHT22;9540;51.550;7.980;2023-04-24T09:30:11;9.30;99.90
18823;DHT22;9540;51.550;7.980;2023-04-24T09:32:38;9.30;99.90
18823;DHT22;9540;51.550;7.980;2023-04-24T09:35:07;9.30;99.90
18823;DHT22;9540;51.550;7.980;2023-04-24T09:37:38;9.30;99.90
18823;DHT22;9540;51.550;7.980;2023-04-24T09:40:16;9.40;99.90
18823;DHT22;9540;51.550;7.980;2023-04-24T09:42:44;9.40;99.90
18823;DHT22;9540;51.550;7.980;2023-04-24T09:45:12;9.20;99.90
18823;DHT22;9540;51.550;7.980;2023-04-24T09:47:40;9.00;99.90
18823;DHT22;9540;51.550;7.980;2023-04-24T09:50:12;9.00;99.90
18823;DHT22;9540;51.550;7.980;2023-04-24T09:52:40;9.00;99.90
18823;DHT22;9540;51.550;7.980;2023-04-24T09:55:16;9.00;99.90
18823;DHT22;9540;51.550;7.980;2023-04-24T09:57:50;8.90;99.90
18823;DHT22;9540;51.550;7.980;2023-04-24T10:00:25;9.00;99.90
18823;DHT22;9540;51.550;7.980;2023-04-24T10:02:57;9.10;99.90
18823;DHT22;9540;51.550;7.980;2023-04-24T10:05:26;9.00;99.90
18823;DHT22;9540;51.550;7.980;2023-04-24T10:07:57;8.70;99.90
18823;DHT22;9540;51.550;7.980;2023-04-24T10:10:26;8.80;99.90
18823;DHT22;9540;51.550;7.980;2023-04-24T10:12:53;8.80;99.90
18823;DHT22;9540;51.550;7.980;2023-04-24T10:15:21;8.80;99.90
18823;DHT22;9540;51.550;7.980;2023-04-24T10:17:49;8.90;99.90
18823;DHT22;9540;51.550;7.980;2023-04-24T10:20:19;8.80;99.90
18823;DHT22;9540;51.550;7.980;2023-04-24T10:22:48;8.70;99.90
18823;DHT22;9540;51.550;7.980;2023-04-24T10:25:18;8.60;99.90
18823;DHT22;9540;51.550;7.980;2023-04-24T10:27:49;8.60;99.90
18823;DHT22;9540;51.550;7.980;2023-04-24T10:30:16;8.60;99.90
18823;DHT22;9540;51.550;7.980;2023-04-24T10:32:44;8.40;99.90
18823;DHT22;9540;51.550;7.980;2023-04-24T10:35:12;8.30;99.90
18823;DHT22;9540;51.550;7.980;2023-04-24T10:37:43;8.30;99.90
18823;DHT22;9540;51.550;7.980;2023-04-24T10:40:12;8.30;99.90
18823;DHT22;9540;51.550;7.980;2023-04-24T10:42:42;8.30;99.90
18823;DHT22;9540;51.550;7.980;2023-04-24T10:45:18;8.40;99.90
18823;DHT22;9540;51.550;7.980;2023-04-24T10:47:56;8.40;99.90
18823;DHT22;9540;51.550;7.980;2023-04-24T10:50:25;8.30;99.90
18823;DHT22;9540;51.550;7.980;2023-04-24T10:53:06;8.20;99.90
18823;DHT22;9540;51.550;7.980;2023-04-24T10:55:46;8.20;99.90
18823;DHT22;9540;51.550;7.980;2023-04-24T10:58:14;8.10;99.90
18823;DHT22;9540;51.550;7.980;2023-04-24T11:00:48;8.00;99.90
18823;DHT22;9540;51.550;7.980;2023-04-24T11:03:26;7.90;99.90
18823;DHT22;9540;51.550;7.980;2023-04-24T11:05:56;7.70;99.90
18823;DHT22;9540;51.550;7.980;2023-04-24T11:08:26;7.70;99.90
18823;DHT22;9540;51.550;7.980;2023-04-24T11:11:08;7.60;99.90
18823;DHT22;9540;51.550;7.980;2023-04-24T11:14:03;7.60;99.90
18823;DHT22;9540;51.550;7.980;2023-04-24T11:16:42;7.60;99.90
18823;DHT22;9540;51.550;7.980;2023-04-24T11:19:18;7.60;99.90
18823;DHT22;9540;51.550;7.980;2023-04-24T11:21:49;7.60;99.90
18823;DHT22;9540;51.550;7.980;2023-04-24T11:24:25;7.60;99.90
18823;DHT22;9540;51.550;7.980;2023-04-24T11:26:53;7.50;99.90
18823;DHT22;9540;51.550;7.980;2023-04-24T11:29:21;7.50;99.90
18823;DHT22;9540;51.550;7.980;2023-04-24T11:31:49;7.40;99.90
18823;DHT22;9540;51.550;7.980;2023-04-24T11:34:17;7.30;99.90
18823;DHT22;9540;51.550;7.980;2023-04-24T11:36:48;7.40;99.90
18823;DHT22;9540;51.550;7.980;2023-04-24T11:39:15;7.50;99.90
18823;DHT22;9540;51.550;7.980;2023-04-24T11:41:42;7.60;99.90
18823;DHT22;9540;51.550;7.980;2023-04-24T11:44:09;7.70;99.90
18823;DHT22;9540;51.550;7.980;2023-04-24T11:46:37;7.70;99.90
18823;DHT22;9540;51.550;7.980;2023-04-24T11:49:07;7.70;99.90
18823;DHT22;9540;51.550;7.980;2023-04-24T11:51:34;7.70;99.90
18823;DHT22;9540;51.550;7.980;2023-04-24T11:54:01;7.60;99.90
18823;DHT22;9540;51.550;7.980;2023-04-24T11:56:28;7.50;99.90
18823;DHT22;9540;51.550;7.980;2023-04-24T11:58:56;7.50;99.90
18823;DHT22;9540;51.550;7.980;2023-04-24T12:01:23;7.60;99.90
18823;DHT22;9540;51.550;7.980;2023-04-24T12:03:50;7.70;99.90
18823;DHT22;9540;51.550;7.980;2023-04-24T12:06:27;7.90;99.90
18823;DHT22;9540;51.550;7.980;2023-04-24T12:08:54;7.90;99.90
18823;DHT22;9540;51.550;7.980;2023-04-24T12:11:26;7.80;99.90
18823;DHT22;9540;51.550;7.980;2023-04-24T12:13:53;7.80;99.90
18823;DHT22;9540;51.550;7.980;2023-04-24T12:16:20;7.70;99.90
18823;DHT22;9540;51.550;7.980;2023-04-24T12:18:47;7.70;99.90
18823;DHT22;9540;51.550;7.980;2023-04-24T12:21:18;7.70;99.90
18823;DHT22;9540;51.550;7.980;2023-04-24T12:23:47;7.70;99.90
18823;DHT22;9540;51.550;7.980;2023-04-24T12:26:17;7.90;99.90
18823;DHT22;9540;51.550;7.980;2023-04-24T12:28:47;8.00;99.90
18823;DHT22;9540;51.550;7.980;2023-04-24T12:31:15;8.00;99.90
18823;DHT22;9540;51.550;7.980;2023-04-24T12:33:43;8.00;99.90
18823;DHT22;9540;51.550;7.980;2023-04-24T12:36:11;8.00;99.90
18823;DHT22;9540;51.550;7.980;2023-04-24T12:38:39;8.20;99.90
18823;DHT22;9540;51.550;7.980;2023-04-24T12:41:12;8.20;99.90
18823;DHT22;9540;51.550;7.980;2023-04-24T12:43:51;8.00;99.90
18823;DHT22;9540;51.550;7.980;2023-04-24T12:46:18;7.90;99.90
18823;DHT22;9540;51.550;7.980;2023-04-24T12:48:48;7.90;99.90
18823;DHT22;9540;51.550;7.980;2023-04-24T12:51:15;7.80;99.90
18823;DHT22;9540;51.550;7.980;2023-04-24T12:53:42;7.80;99.90
18823;DHT22;9540;51.550;7.980;2023-04-24T12:56:11;7.70;99.90
18823;DHT22;9540;51.550;7.980;2023-04-24T12:58:39;7.60;99.90
18823;DHT22;9540;51.550;7.980;2023-04-24T13:01:06;7.50;99.90
18823;DHT22;9540;51.550;7.980;2023-04-24T13:03:33;7.50;99.90
18823;DHT22;9540;51.550;7.980;2023-04-24T13:06:00;7.50;99.90
18823;DHT22;9540;51.550;7.980;2023-04-24T13:08:27;7.50;99.90
18823;DHT22;9540;51.550;7.980;2023-04-24T13:10:54;7.40;99.90
18823;DHT22;9540;51.550;7.980;2023-04-24T13:13:23;7.50;99.90
18823;DHT22;9540;51.550;7.980;2023-04-24T13:15:50;7.60;99.90
18823;DHT22;9540;51.550;7.980;2023-04-24T13:18:17;7.90;99.90
18823;DHT22;9540;51.550;7.980;2023-04-24T13:20:44;8.30;99.90
18823;DHT22;9540;51.550;7.980;2023-04-24T13:23:13;8.50;99.90
18823;DHT22;9540;51.550;7.980;2023-04-24T13:25:40;8.70;99.90
18823;DHT22;9540;51.550;7.980;2023-04-24T13:28:07;8.90;99.90
18823;DHT22;9540;51.550;7.980;2023-04-24T13:30:36;9.00;99.90
18823;DHT22;9540;51.550;7.980;2023-04-24T13:33:03;8.80;99.90
18823;DHT22;9540;51.550;7.980;2023-04-24T13:35:30;8.60;99.90
18823;DHT22;9540;51.550;7.980;2023-04-24T13:37:57;8.40;99.90
18823;DHT22;9540;51.550;7.980;2023-04-24T13:40:27;8.40;99.90
18823;DHT22;9540;51.550;7.980;2023-04-24T13:42:54;8.40;99.90
18823;DHT22;9540;51.550;7.980;2023-04-24T13:45:21;8.40;99.90
18823;DHT22;9540;51.550;7.980;2023-04-24T13:47:50;8.30;99.90
18823;DHT22;9540;51.550;7.980;2023-04-24T13:50:17;8.10;99.90
18823;DHT22;9540;51.550;7.980;2023-04-24T13:52:44;8.10;99.90
18823;DHT22;9540;51.550;7.980;2023-04-24T13:55:11;8.10;99.90
18823;DHT22;9540;51.550;7.980;2023-04-24T13:57:39;8.10;99.90
18823;DHT22;9540;51.550;7.980;2023-04-24T14:00:07;8.10;99.90
18823;DHT22;9540;51.550;7.980;2023-04-24T14:02:36;8.20;99.90
18823;DHT22;9540;51.550;7.980;2023-04-24T14:05:05;8.60;99.90
18823;DHT22;9540;51.550;7.980;2023-04-24T14:07:32;9.10;99.90
18823;DHT22;9540;51.550;7.980;2023-04-24T14:09:59;9.40;99.90
18823;DHT22;9540;51.550;7.980;2023-04-24T14:12:27;9.30;99.90
18823;DHT22;9540;51.550;7.980;2023-04-24T14:14:54;9.20;99.90
18823;DHT22;9540;51.550;7.980;2023-04-24T14:17:21;9.00;99.90
18823;DHT22;9540;51.550;7.980;2023-04-24T14:19:48;8.80;99.90
18823;DHT22;9540;51.550;7.980;2023-04-24T14:22:17;8.80;99.90
18823;DHT22;9540;51.550;7.980;2023-04-24T14:24:44;8.60;99.90
18823;DHT22;9540;51.550;7.980;2023-04-24T14:27:11;8.60;99.90
18823;DHT22;9540;51.550;7.980;2023-04-24T14:29:38;8.60;99.90
18823;DHT22;9540;51.550;7.980;2023-04-24T14:32:06;8.50;99.90
18823;DHT22;9540;51.550;7.980;2023-04-24T14:34:34;8.50;99.90
18823;DHT22;9540;51.550;7.980;2023-04-24T14:37:01;8.50;99.90
18823;DHT22;9540;51.550;7.980;2023-04-24T14:39:30;8.50;99.90
18823;DHT22;9540;51.550;7.980;2023-04-24T14:41:57;8.50;99.90
18823;DHT22;9540;51.550;7.980;2023-04-24T14:44:24;8.60;99.90
18823;DHT22;9540;51.550;7.980;2023-04-24T14:46:51;8.80;99.90
18823;DHT22;9540;51.550;7.980;2023-04-24T14:49:18;8.80;99.90
18823;DHT22;9540;51.550;7.980;2023-04-24T14:51:46;8.90;99.90
18823;DHT22;9540;51.550;7.980;2023-04-24T14:54:13;9.00;99.90
18823;DHT22;9540;51.550;7.980;2023-04-24T14:56:41;9.20;99.90
18823;DHT22;9540;51.550;7.980;2023-04-24T14:59:10;9.40;99.90
18823;DHT22;9540;51.550;7.980;2023-04-24T15:01:37;9.50;99.90
18823;DHT22;9540;51.550;7.980;2023-04-24T15:04:05;9.60;99.90
18823;DHT22;9540;51.550;7.980;2023-04-24T15:06:32;9.70;99.90
18823;DHT22;9540;51.550;7.980;2023-04-24T15:08:59;9.70;99.90
18823;DHT22;9540;51.550;7.980;2023-04-24T15:11:26;9.70;99.90
18823;DHT22;9540;51.550;7.980;2023-04-24T15:13:56;9.80;99.90
18823;DHT22;9540;51.550;7.980;2023-04-24T15:16:24;10.00;99.90
18823;DHT22;9540;51.550;7.980;2023-04-24T15:18:51;10.20;99.90
18823;DHT22;9540;51.550;7.980;2023-04-24T15:21:18;10.20;99.90
18823;DHT22;9540;51.550;7.980;2023-04-24T15:23:45;10.10;99.90
18823;DHT22;9540;51.550;7.980;2023-04-24T15:26:12;10.00;99.90
18823;DHT22;9540;51.550;7.980;2023-04-24T15:28:39;9.80;99.90
18823;DHT22;9540;51.550;7.980;2023-04-24T15:31:08;9.60;99.90
18823;DHT22;9540;51.550;7.980;2023-04-24T15:33:35;9.50;99.90
18823;DHT22;9540;51.550;7.980;2023-04-24T15:36:02;9.30;99.90
18823;DHT22;9540;51.550;7.980;2023-04-24T15:38:30;9.10;99.90
18823;DHT22;9540;51.550;7.980;2023-04-24T15:40:57;9.00;99.90
18823;DHT22;9540;51.550;7.980;2023-04-24T15:43:24;8.90;99.90
18823;DHT22;9540;51.550;7.980;2023-04-24T15:45:51;8.80;99.90
18823;DHT22;9540;51.550;7.980;2023-04-24T15:48:20;8.70;99.90
18823;DHT22;9540;51.550;7.980;2023-04-24T15:50:47;8.60;99.90
18823;DHT22;9540;51.550;7.980;2023-04-24T15:53:14;8.50;99.90
18823;DHT22;9540;51.550;7.980;2023-04-24T15:55:46;8.50;99.90
18823;DHT22;9540;51.550;7.980;2023-04-24T15:58:13;8.60;99.90
18823;DHT22;9540;51.550;7.980;2023-04-24T16:00:41;8.70;99.90
18823;DHT22;9540;51.550;7.980;2023-04-24T16:03:08;8.90;99.90
18823;DHT22;9540;51.550;7.980;2023-04-24T16:05:36;8.90;99.90